createdAt,value
2023-04-16T00:00:57.525Z,6.0710
2023-04-16T00:01:58.514Z,6.0837
2023-04-16T00:02:58.606Z,6.0872
2023-04-16T00:03:59.514Z,6.0976
2023-04-16T00:05:00.413Z,6.0852
2023-04-16T00:06:01.493Z,6.0848
2023-04-16T00:07:02.286Z,6.0864
2023-04-16T00:08:02.956Z,6.0782
2023-04-16T00:09:03.974Z,6.0589
2023-04-16T00:10:04.440Z,6.0480
2023-04-16T00:11:05.427Z,6.0572
2023-04-16T00:12:05.967Z,6.0496
2023-04-16T00:13:06.634Z,6.0619
2023-04-16T00:14:07.312Z,6.0639
2023-04-16T00:15:07.866Z,6.0935
2023-04-16T00:16:08.652Z,6.0976
2023-04-16T00:17:09.665Z,6.0962
2023-04-16T00:18:10.326Z,6.0973
2023-04-16T00:19:11.660Z,6.1030
2023-04-16T00:20:11.538Z,6.0885
2023-04-16T00:21:12.280Z,6.0907
2023-04-16T00:22:12.875Z,6.0956
2023-04-16T00:23:13.518Z,6.1012
2023-04-16T00:24:14.500Z,6.1037
2023-04-16T00:25:15.561Z,6.0959
2023-04-16T00:26:16.166Z,6.0960
2023-04-16T00:27:16.979Z,6.0966
2023-04-16T00:28:17.560Z,6.0940
2023-04-16T00:29:18.840Z,6.0929
2023-04-16T00:30:19.811Z,6.0940
2023-04-16T00:31:20.826Z,6.0918
2023-04-16T00:32:21.142Z,6.0864
2023-04-16T00:33:22.109Z,6.0867
2023-04-16T00:34:22.761Z,6.0864
2023-04-16T00:35:23.302Z,6.0789
2023-04-16T00:36:24.137Z,6.0761
2023-04-16T00:37:24.781Z,6.0795
2023-04-16T00:38:25.799Z,6.0771
2023-04-16T00:39:26.479Z,6.0729
2023-04-16T00:40:27.283Z,6.0749
2023-04-16T00:41:27.900Z,6.0814
2023-04-16T00:42:29.048Z,6.0875
2023-04-16T00:44:29.432Z,6.0862
2023-04-16T00:45:30.198Z,6.0923
2023-04-16T00:46:31.231Z,6.0865
2023-04-16T00:47:31.831Z,6.0897
2023-04-16T00:48:32.651Z,6.0888
2023-04-16T00:49:32.831Z,6.0924
2023-04-16T00:50:33.460Z,6.0902
2023-04-16T00:51:34.155Z,6.0811
2023-04-16T00:52:34.645Z,6.0809
2023-04-16T00:53:35.321Z,6.0843
2023-04-16T00:54:35.928Z,6.0816
2023-04-16T00:55:36.388Z,6.0861
2023-04-16T00:56:37.055Z,6.0947
2023-04-16T00:57:37.610Z,6.0928
2023-04-16T00:58:38.010Z,6.0986
2023-04-16T00:59:38.680Z,6.0916
2023-04-16T01:00:40.081Z,6.0912
2023-04-16T01:01:41.225Z,6.0852
2023-04-16T01:02:42.666Z,6.0858
2023-04-16T01:03:43.675Z,6.0867
2023-04-16T01:04:43.472Z,6.0851
2023-04-16T01:05:44.127Z,6.0956
2023-04-16T01:06:44.482Z,6.0853
2023-04-16T01:07:45.230Z,6.0816
2023-04-16T01:08:45.713Z,6.0745
2023-04-16T01:09:45.944Z,6.0708
2023-04-16T01:10:46.635Z,6.0759
2023-04-16T01:11:46.972Z,6.0817
2023-04-16T01:12:47.647Z,6.0876
2023-04-16T01:13:48.256Z,6.0905
2023-04-16T01:14:48.797Z,6.1037
2023-04-16T01:15:49.628Z,6.0934
2023-04-16T01:16:50.369Z,6.0918
2023-04-16T01:17:51.218Z,6.1040
2023-04-16T01:18:51.992Z,6.1040
2023-04-16T01:19:53.056Z,6.1059
2023-04-16T01:20:53.692Z,6.1065
2023-04-16T01:21:54.396Z,6.1029
2023-04-16T01:22:55.189Z,6.0935
2023-04-16T01:23:55.842Z,6.0840
2023-04-16T01:24:56.589Z,6.0914
2023-04-16T01:25:57.205Z,6.1021
2023-04-16T01:26:57.908Z,6.0893
2023-04-16T01:27:58.293Z,6.0829
2023-04-16T01:28:58.896Z,6.0942
2023-04-16T01:29:59.603Z,6.0858
2023-04-16T01:31:00.067Z,6.0839
2023-04-16T01:32:01.196Z,6.0896
2023-04-16T01:33:02.232Z,6.0925
2023-04-16T01:34:02.711Z,6.0840
2023-04-16T01:35:03.379Z,6.0828
2023-04-16T01:36:03.817Z,6.0820
2023-04-16T01:37:04.428Z,6.0792
2023-04-16T01:38:05.262Z,6.0691
2023-04-16T01:39:05.708Z,6.0693
2023-04-16T01:40:05.764Z,6.0610
2023-04-16T01:41:06.339Z,6.0625
2023-04-16T01:42:06.884Z,6.0687
2023-04-16T01:43:07.498Z,6.0616
2023-04-16T01:44:07.601Z,6.0764
2023-04-16T01:45:08.385Z,6.0678
2023-04-16T01:46:09.174Z,6.0708
2023-04-16T01:47:09.756Z,6.0624
2023-04-16T01:48:10.500Z,6.0626
2023-04-16T01:49:11.354Z,6.0629
2023-04-16T01:50:12.259Z,6.0605
2023-04-16T01:51:12.944Z,6.0572
2023-04-16T01:52:13.774Z,6.0670
2023-04-16T01:53:14.229Z,6.0621
2023-04-16T01:54:14.936Z,6.0622
2023-04-16T01:55:15.404Z,6.0687
2023-04-16T01:56:16.122Z,6.0691
2023-04-16T01:57:16.829Z,6.0713
2023-04-16T01:58:17.213Z,6.0642
2023-04-16T01:59:18.156Z,6.0516
2023-04-16T02:00:18.844Z,6.0440
2023-04-16T02:01:19.558Z,6.0294
2023-04-16T02:02:19.904Z,6.0288
2023-04-16T02:03:20.211Z,6.0334
2023-04-16T02:04:20.968Z,6.0331
2023-04-16T02:05:21.510Z,6.0374
2023-04-16T02:06:22.187Z,6.0363
2023-04-16T02:07:22.843Z,6.0252
2023-04-16T02:08:23.553Z,6.0291
2023-04-16T02:11:24.340Z,6.0243
2023-04-16T02:12:24.979Z,6.0219
2023-04-16T02:13:25.469Z,6.0186
2023-04-16T02:14:26.283Z,6.0175
2023-04-16T02:15:26.853Z,6.0122
2023-04-16T02:16:27.412Z,6.0036
2023-04-16T02:17:28.597Z,5.9925
2023-04-16T02:18:29.453Z,5.9925
2023-04-16T02:19:30.373Z,6.0064
2023-04-16T02:20:30.991Z,6.0069
2023-04-16T02:21:31.345Z,5.9961
2023-04-16T02:22:32.015Z,5.9962
2023-04-16T02:23:32.820Z,5.9947
2023-04-16T02:24:33.985Z,5.9980
2023-04-16T02:25:34.914Z,5.9845
2023-04-16T02:26:35.649Z,5.9861
2023-04-16T02:27:36.232Z,5.9922
2023-04-16T02:28:36.950Z,5.9908
2023-04-16T02:29:37.459Z,5.9887
2023-04-16T02:30:38.074Z,5.9894
2023-04-16T02:31:38.775Z,5.9845
2023-04-16T02:32:39.757Z,5.9889
2023-04-16T02:33:40.711Z,5.9790
2023-04-16T02:34:41.437Z,5.9767
2023-04-16T02:35:41.844Z,5.9776
2023-04-16T02:36:42.484Z,5.9744
2023-04-16T02:37:43.120Z,5.9670
2023-04-16T02:38:43.792Z,5.9660
2023-04-16T02:39:44.016Z,5.9569
2023-04-16T02:40:44.657Z,5.9613
2023-04-16T02:41:45.415Z,5.9487
2023-04-16T02:42:45.958Z,5.9519
2023-04-16T02:43:46.326Z,5.9397
2023-04-16T02:44:46.979Z,5.9370
2023-04-16T02:45:47.760Z,5.9328
2023-04-16T02:46:48.709Z,5.9358
2023-04-16T02:47:49.634Z,5.9327
2023-04-16T02:48:50.752Z,5.9294
2023-04-16T02:49:51.574Z,5.9316
2023-04-16T02:50:52.458Z,5.9423
2023-04-16T02:51:52.870Z,5.9288
2023-04-16T02:52:53.613Z,5.9333
2023-04-16T02:53:54.040Z,5.9213
2023-04-16T02:54:54.722Z,5.9020
2023-04-16T02:55:55.391Z,5.9009
2023-04-16T02:56:55.872Z,5.9090
2023-04-16T02:57:56.795Z,5.9088
2023-04-16T02:58:57.437Z,5.9048
2023-04-16T02:59:58.489Z,5.8977
2023-04-16T03:00:58.606Z,5.8927
2023-04-16T03:02:00.173Z,5.9057
2023-04-16T03:03:00.276Z,5.9025
2023-04-16T03:04:01.313Z,5.9053
2023-04-16T03:05:02.497Z,5.8942
2023-04-16T03:06:03.148Z,5.8928
2023-04-16T03:07:04.151Z,5.8996
2023-04-16T03:08:04.725Z,5.9012
2023-04-16T03:09:05.461Z,5.8959
2023-04-16T03:10:05.529Z,5.8849
2023-04-16T03:11:06.163Z,5.8785
2023-04-16T03:12:06.849Z,5.8768
2023-04-16T03:13:07.316Z,5.8814
2023-04-16T03:14:08.328Z,5.8748
2023-04-16T03:15:09.620Z,5.8694
2023-04-16T03:16:10.875Z,5.8788
2023-04-16T03:17:12.042Z,5.8788
2023-04-16T03:18:12.988Z,5.8801
2023-04-16T03:19:13.314Z,5.8712
2023-04-16T03:20:14.094Z,5.8647
2023-04-16T03:21:14.735Z,5.8718
2023-04-16T03:22:15.431Z,5.8641
2023-04-16T03:23:16.024Z,5.8651
2023-04-16T03:24:16.532Z,5.8700
2023-04-16T03:25:16.552Z,5.8724
2023-04-16T03:26:17.413Z,5.8795
2023-04-16T03:27:18.029Z,5.8775
2023-04-16T03:28:18.601Z,5.8700
2023-04-16T03:29:19.333Z,5.8698
2023-04-16T03:30:20.336Z,5.8545
2023-04-16T03:32:21.142Z,5.8656
2023-04-16T03:33:21.202Z,5.8567
2023-04-16T03:34:21.844Z,5.8580
2023-04-16T03:35:22.480Z,5.8612
2023-04-16T03:36:23.248Z,5.8593
2023-04-16T03:37:24.173Z,5.8530
2023-04-16T03:38:24.958Z,5.8454
2023-04-16T03:39:25.493Z,5.8603
2023-04-16T03:40:26.130Z,5.8713
2023-04-16T03:41:26.714Z,5.8692
2023-04-16T03:42:27.299Z,5.8596
2023-04-16T03:43:27.695Z,5.8584
2023-04-16T03:44:28.512Z,5.8598
2023-04-16T03:45:29.020Z,5.8597
2023-04-16T03:46:29.807Z,5.8618
2023-04-16T03:47:31.038Z,5.8519
2023-04-16T03:48:31.994Z,5.8658
2023-04-16T03:49:32.030Z,5.8612
2023-04-16T03:50:32.550Z,5.8534
2023-04-16T03:51:33.381Z,5.8559
2023-04-16T03:52:34.144Z,5.8440
2023-04-16T03:53:34.707Z,5.8329
2023-04-16T03:54:35.205Z,5.8302
2023-04-16T03:55:35.996Z,5.8253
2023-04-16T03:56:36.722Z,5.8276
2023-04-16T03:57:37.637Z,5.8273
2023-04-16T03:58:38.219Z,5.8178
2023-04-16T03:59:39.102Z,5.8279
2023-04-16T04:00:39.971Z,5.8330
2023-04-16T04:01:40.830Z,5.8361
2023-04-16T04:02:41.613Z,5.8383
2023-04-16T04:03:42.396Z,5.8166
2023-04-16T04:04:43.747Z,5.8130
2023-04-16T04:05:43.707Z,5.8121
2023-04-16T04:06:44.345Z,5.8207
2023-04-16T04:07:45.099Z,5.8188
2023-04-16T04:08:45.643Z,5.8013
2023-04-16T04:09:46.429Z,5.8050
2023-04-16T04:10:49.539Z,5.8067
2023-04-16T04:11:51.099Z,5.8163
2023-04-16T04:12:51.852Z,5.8239
2023-04-16T04:16:57.149Z,5.8136
2023-04-16T04:17:57.415Z,5.8162
2023-04-16T04:18:58.364Z,5.8134
2023-04-16T04:20:03.204Z,5.8037
2023-04-16T04:21:03.817Z,5.8164
2023-04-16T04:22:04.469Z,5.8118
2023-04-16T04:23:05.230Z,5.8083
2023-04-16T04:24:05.764Z,5.8013
2023-04-16T04:25:06.104Z,5.8001
2023-04-16T04:26:06.979Z,5.7914
2023-04-16T04:27:07.638Z,5.7981
2023-04-16T04:28:08.269Z,5.8104
2023-04-16T04:29:09.243Z,5.8175
2023-04-16T04:30:10.094Z,5.8158
2023-04-16T04:31:11.192Z,5.7987
2023-04-16T04:32:11.909Z,5.7870
2023-04-16T04:33:12.613Z,5.7837
2023-04-16T04:34:13.496Z,5.7835
2023-04-16T04:35:14.358Z,5.7898
2023-04-16T04:36:14.969Z,5.7941
2023-04-16T04:37:15.714Z,5.8063
2023-04-16T04:38:16.349Z,5.8006
2023-04-16T04:39:16.296Z,5.8119
2023-04-16T04:40:17.210Z,5.8236
2023-04-16T04:41:17.878Z,5.8203
2023-04-16T04:42:18.719Z,5.8124
2023-04-16T04:43:19.382Z,5.8082
2023-04-16T04:44:19.848Z,5.8083
2023-04-16T04:45:20.503Z,5.8055
2023-04-16T04:46:21.463Z,5.8017
2023-04-16T04:49:22.635Z,5.7713
2023-04-16T04:50:23.390Z,5.7699
2023-04-16T04:51:24.747Z,5.7754
2023-04-16T04:52:25.408Z,5.7802
2023-04-16T04:53:26.616Z,5.7710
2023-04-16T04:54:27.100Z,5.7632
2023-04-16T04:55:27.959Z,5.7704
2023-04-16T04:56:28.100Z,5.7619
2023-04-16T04:57:28.471Z,5.7558
2023-04-16T04:58:29.385Z,5.7698
2023-04-16T04:59:30.136Z,5.7722
2023-04-16T05:00:30.752Z,5.7701
2023-04-16T05:01:30.823Z,5.7699
2023-04-16T05:02:31.618Z,5.7694
2023-04-16T05:03:31.987Z,5.7710
2023-04-16T05:04:32.353Z,5.7681
2023-04-16T05:05:32.348Z,5.7604
2023-04-16T05:06:33.032Z,5.7618
2023-04-16T05:07:33.438Z,5.7788
2023-04-16T05:08:34.130Z,5.7911
2023-04-16T05:09:34.875Z,5.7878
2023-04-16T05:10:35.544Z,5.7861
2023-04-16T05:11:36.323Z,5.7898
2023-04-16T05:12:36.797Z,5.8035
2023-04-16T05:13:37.658Z,5.8132
2023-04-16T05:14:38.384Z,5.8143
2023-04-16T05:15:38.679Z,5.8137
2023-04-16T05:16:39.583Z,5.8155
2023-04-16T05:17:40.013Z,5.8096
2023-04-16T05:18:41.302Z,5.8052
2023-04-16T05:19:41.708Z,5.7953
2023-04-16T05:20:42.937Z,5.8020
2023-04-16T05:21:42.908Z,5.8176
2023-04-16T05:22:43.520Z,5.8260
2023-04-16T05:23:44.366Z,5.8123
2023-04-16T05:24:45.082Z,5.8158
2023-04-16T05:25:45.793Z,5.8098
2023-04-16T05:26:46.575Z,5.8143
2023-04-16T05:27:47.588Z,5.8121
2023-04-16T05:28:48.178Z,5.8152
2023-04-16T05:29:49.142Z,5.8088
2023-04-16T05:30:49.715Z,5.8169
2023-04-16T05:31:50.753Z,5.8421
2023-04-16T05:32:51.647Z,5.8386
2023-04-16T05:33:52.842Z,5.8169
2023-04-16T05:34:53.479Z,5.8185
2023-04-16T05:35:54.837Z,5.8238
2023-04-16T05:36:55.775Z,5.8178
2023-04-16T05:37:56.800Z,5.8102
2023-04-16T05:38:57.313Z,5.8135
2023-04-16T05:39:58.084Z,5.8256
2023-04-16T05:40:58.815Z,5.8241
2023-04-16T05:41:59.539Z,5.8339
2023-04-16T05:43:00.326Z,5.8533
2023-04-16T05:44:01.131Z,5.8515
2023-04-16T05:45:01.732Z,5.8599
2023-04-16T05:46:02.277Z,5.8568
2023-04-16T05:47:03.244Z,5.8532
2023-04-16T05:48:03.983Z,5.8418
2023-04-16T05:50:04.608Z,5.8333
2023-04-16T05:51:05.827Z,5.8396
2023-04-16T05:52:06.533Z,5.8501
2023-04-16T05:53:07.056Z,5.8493
2023-04-16T05:54:07.830Z,5.8452
2023-04-16T05:55:08.449Z,5.8316
2023-04-16T05:56:08.969Z,5.8383
2023-04-16T05:57:10.359Z,5.8457
2023-04-16T05:58:10.642Z,5.8484
2023-04-16T05:59:11.334Z,5.8598
2023-04-16T06:00:11.317Z,5.8581
2023-04-16T06:01:11.770Z,5.8635
2023-04-16T06:02:12.666Z,5.8659
2023-04-16T06:03:14.116Z,5.8666
2023-04-16T06:04:14.174Z,5.8605
2023-04-16T06:06:14.792Z,5.8612
2023-04-16T06:07:15.753Z,5.8692
2023-04-16T06:08:16.480Z,5.8572
2023-04-16T06:09:17.666Z,5.8409
2023-04-16T06:10:18.451Z,5.8295
2023-04-16T06:11:22.527Z,5.8148
2023-04-16T06:12:20.871Z,5.8123
2023-04-16T06:13:21.458Z,5.8228
2023-04-16T06:14:22.452Z,5.8105
2023-04-16T06:15:23.836Z,5.8116
2023-04-16T06:16:23.934Z,5.8092
2023-04-16T06:17:41.203Z,5.8026
2023-04-16T06:18:24.569Z,5.7854
2023-04-16T06:19:25.702Z,5.7764
2023-04-16T06:20:26.195Z,5.7848
2023-04-16T06:21:27.006Z,5.7915
2023-04-16T06:22:27.109Z,5.8133
2023-04-16T06:23:28.181Z,5.8172
2023-04-16T06:24:29.132Z,5.8116
2023-04-16T06:25:30.162Z,5.8040
2023-04-16T06:26:31.468Z,5.8132
2023-04-16T06:28:32.332Z,5.8214
2023-04-16T06:29:41.131Z,5.8362
2023-04-16T06:30:34.459Z,5.8405
2023-04-16T06:31:34.693Z,5.8296
2023-04-16T06:32:35.482Z,5.8327
2023-04-16T06:33:36.699Z,5.8420
2023-04-16T06:34:37.070Z,5.8580
2023-04-16T06:37:41.958Z,5.9017
2023-04-16T06:38:42.578Z,5.9132
2023-04-16T06:39:43.638Z,5.9313
2023-04-16T06:40:44.829Z,5.9014
2023-04-16T06:43:48.369Z,5.9208
2023-04-16T06:49:54.184Z,5.9778
2023-04-16T06:57:02.299Z,6.0026
2023-04-16T06:58:03.421Z,5.9771
2023-04-16T06:59:03.741Z,5.9393
2023-04-16T07:01:04.148Z,5.9085
2023-04-16T07:02:04.399Z,5.9271
2023-04-16T07:03:05.392Z,5.9340
2023-04-16T07:04:05.709Z,5.9459
2023-04-16T07:05:05.608Z,5.9200
2023-04-16T07:06:07.276Z,5.9295
2023-04-16T07:07:07.333Z,5.9260
2023-04-16T07:09:07.454Z,5.9008
2023-04-16T07:10:08.373Z,5.9062
2023-04-16T07:11:08.542Z,5.8585
2023-04-16T07:12:08.694Z,5.8590
2023-04-16T07:13:09.369Z,5.8197
2023-04-16T07:14:10.735Z,5.7965
2023-04-16T07:15:11.327Z,5.7998
2023-04-16T07:16:11.705Z,5.8253
2023-04-16T07:19:14.209Z,5.8895
2023-04-16T07:20:14.710Z,5.8766
2023-04-16T07:21:16.141Z,5.8386
2023-04-16T07:23:17.000Z,5.7612
2023-04-16T07:24:17.754Z,5.7088
2023-04-16T07:25:18.033Z,5.7332
2023-04-16T07:26:20.164Z,5.7505
2023-04-16T07:31:25.601Z,5.7443
2023-04-16T07:32:26.424Z,5.7614
2023-04-16T07:33:26.954Z,5.8065
2023-04-16T07:34:27.894Z,5.8230
2023-04-16T07:35:28.658Z,5.8065
2023-04-16T07:40:30.970Z,5.7738
2023-04-16T07:41:32.008Z,5.7125
2023-04-16T07:45:35.350Z,5.6298
2023-04-16T07:46:46.159Z,5.6553
2023-04-16T07:47:37.341Z,5.6792
2023-04-16T07:48:38.335Z,5.6998
2023-04-16T07:49:39.302Z,5.7215
2023-04-16T07:50:39.993Z,5.7724
2023-04-16T07:51:40.535Z,5.7807
2023-04-16T07:52:42.470Z,5.8093
2023-04-16T07:53:42.724Z,5.7893
2023-04-16T07:57:45.530Z,5.8072
2023-04-16T07:58:46.747Z,5.7958
2023-04-16T08:03:52.853Z,5.8698
2023-04-16T08:04:53.564Z,5.8800
2023-04-16T08:05:54.354Z,5.8642
2023-04-16T08:13:04.963Z,5.7556
2023-04-16T08:14:05.548Z,5.8098
2023-04-16T08:15:06.136Z,5.8233
2023-04-16T08:16:06.776Z,5.8338
2023-04-16T08:17:08.825Z,5.8441
2023-04-16T08:18:09.518Z,5.8369
2023-04-16T08:19:11.038Z,5.8572
2023-04-16T08:25:16.654Z,5.8668
2023-04-16T08:26:17.451Z,5.8348
2023-04-16T08:27:20.516Z,5.8423
2023-04-16T08:28:20.563Z,5.8537
2023-04-16T08:29:21.365Z,5.8524
2023-04-16T08:30:21.602Z,5.9040
2023-04-16T08:31:22.386Z,5.9237
2023-04-16T08:32:24.421Z,5.9423
2023-04-16T08:33:26.384Z,5.9346
2023-04-16T08:34:28.455Z,5.9358
2023-04-16T08:35:30.511Z,5.9103
2023-04-16T08:36:32.828Z,5.9156
2023-04-16T08:37:34.217Z,5.9747
2023-04-16T08:38:35.458Z,5.9764
2023-04-16T08:39:45.026Z,6.0267
2023-04-16T08:40:45.494Z,5.9897
2023-04-16T08:41:46.878Z,5.9783
2023-04-16T08:43:49.402Z,5.9709
2023-04-16T08:46:51.419Z,6.0108
2023-04-16T08:47:52.128Z,6.0425
2023-04-16T08:48:52.323Z,6.0767
2023-04-16T08:49:53.422Z,6.0734
2023-04-16T08:50:53.902Z,6.0611
2023-04-16T08:51:55.253Z,6.0705
2023-04-16T08:52:56.136Z,6.0649
2023-04-16T08:53:56.525Z,6.0174
2023-04-16T08:54:59.549Z,5.9533
2023-04-16T08:55:59.124Z,5.9200
2023-04-16T08:57:00.014Z,5.9719
2023-04-16T08:58:01.169Z,5.9763
2023-04-16T08:59:01.663Z,6.0242
2023-04-16T09:00:02.284Z,5.9506
2023-04-16T09:01:02.810Z,5.9607
2023-04-16T09:02:03.845Z,6.0017
2023-04-16T09:03:04.915Z,5.9452
2023-04-16T09:04:05.709Z,5.9543
2023-04-16T09:05:05.358Z,6.0048
2023-04-16T09:06:06.072Z,5.9451
2023-04-16T09:07:06.463Z,5.9372
2023-04-16T09:08:07.030Z,5.9435
2023-04-16T09:09:08.256Z,5.9637
2023-04-16T09:10:08.813Z,5.9480
2023-04-16T09:11:09.411Z,6.0031
2023-04-16T09:12:09.983Z,6.0547
2023-04-16T09:13:10.488Z,6.0749
2023-04-16T09:14:11.198Z,6.1211
2023-04-16T09:15:11.914Z,6.1231
2023-04-16T09:18:13.976Z,6.1194
2023-04-16T09:19:15.301Z,6.1497
2023-04-16T09:20:16.176Z,6.0784
2023-04-16T09:21:16.698Z,6.0829
2023-04-16T09:22:16.972Z,6.0550
2023-04-16T09:23:17.575Z,6.1111
2023-04-16T09:24:18.820Z,6.0830
2023-04-16T09:25:20.012Z,6.0976
2023-04-16T09:28:24.339Z,6.1582
2023-04-16T09:29:25.118Z,6.2077
2023-04-16T09:30:25.808Z,6.2039
2023-04-16T09:31:28.113Z,6.2082
2023-04-16T09:32:34.734Z,6.2178
2023-04-16T09:33:35.147Z,6.1669
2023-04-16T09:34:36.418Z,6.1705
2023-04-16T09:35:36.912Z,6.2491
2023-04-16T09:36:37.649Z,6.1931
2023-04-16T09:37:38.160Z,6.2402
2023-04-16T09:38:38.920Z,6.3040
2023-04-16T09:39:39.787Z,6.2462
2023-04-16T09:40:40.665Z,6.2584
2023-04-16T09:41:41.564Z,6.1912
2023-04-16T09:42:42.069Z,6.1858
2023-04-16T09:43:42.476Z,6.1910
2023-04-16T09:44:43.251Z,6.1934
2023-04-16T09:45:43.572Z,6.1791
2023-04-16T09:46:43.925Z,6.1388
2023-04-16T09:47:45.144Z,6.1500
2023-04-16T09:48:46.009Z,6.2030
2023-04-16T09:49:46.226Z,6.2210
2023-04-16T09:50:46.643Z,6.1996
2023-04-16T09:51:47.183Z,6.1859
2023-04-16T09:52:48.200Z,6.2059
2023-04-16T09:53:48.716Z,6.1853
2023-04-16T09:54:49.486Z,6.1640
2023-04-16T09:55:50.133Z,6.2102
2023-04-16T09:56:50.711Z,6.2277
2023-04-16T09:57:51.482Z,6.1980
2023-04-16T09:58:52.457Z,6.1896
2023-04-16T09:59:53.017Z,6.1858
2023-04-16T10:00:53.256Z,6.2346
2023-04-16T10:02:14.197Z,6.2592
2023-04-16T10:02:54.008Z,6.2868
2023-04-16T10:03:54.637Z,6.3052
2023-04-16T10:04:55.574Z,6.3425
2023-04-16T10:05:56.759Z,6.3171
2023-04-16T10:06:57.454Z,6.3198
2023-04-16T10:07:58.458Z,6.3704
2023-04-16T10:08:59.820Z,6.4356
2023-04-16T10:10:00.182Z,6.4012
2023-04-16T10:12:01.489Z,6.3792
2023-04-16T10:13:01.595Z,6.3547
2023-04-16T10:14:03.314Z,6.3960
2023-04-16T10:15:03.842Z,6.4196
2023-04-16T10:16:05.593Z,6.4639
2023-04-16T10:17:07.360Z,6.4807
2023-04-16T10:18:08.382Z,6.4369
2023-04-16T10:19:09.172Z,6.4514
2023-04-16T10:20:09.984Z,6.5027
2023-04-16T10:21:10.743Z,6.5522
2023-04-16T10:22:12.712Z,6.6165
2023-04-16T10:23:14.848Z,6.5813
2023-04-16T10:24:16.220Z,6.5448
2023-04-16T10:25:17.350Z,6.5509
2023-04-16T10:31:25.476Z,6.5293
2023-04-16T10:32:26.124Z,6.5557
2023-04-16T10:33:27.805Z,6.5966
2023-04-16T10:34:28.312Z,6.6260
2023-04-16T10:35:29.370Z,6.6318
2023-04-16T10:37:30.983Z,6.6949
2023-04-16T10:38:31.917Z,6.7202
2023-04-16T10:39:32.973Z,6.7463
2023-04-16T10:40:33.946Z,6.7758
2023-04-16T10:41:34.548Z,6.8117
2023-04-16T10:43:36.438Z,6.7528
2023-04-16T10:45:38.290Z,6.8902
2023-04-16T10:46:38.456Z,6.9337
2023-04-16T10:47:38.797Z,6.9922
2023-04-16T10:51:48.557Z,7.1191
2023-04-16T10:52:49.216Z,6.9931
2023-04-16T10:53:50.245Z,7.0277
2023-04-16T10:54:51.718Z,6.9366
2023-04-16T10:55:53.446Z,6.9718
2023-04-16T10:56:54.515Z,7.0125
2023-04-16T10:57:54.879Z,7.0459
2023-04-16T10:58:55.563Z,7.1272
2023-04-16T10:59:56.304Z,7.1122
2023-04-16T11:00:57.077Z,7.1593
2023-04-16T11:01:58.627Z,7.1228
2023-04-16T11:03:00.538Z,7.0958
2023-04-16T11:04:00.903Z,7.0938
2023-04-16T11:05:01.926Z,7.0205
2023-04-16T11:07:02.989Z,7.1338
2023-04-16T11:08:03.982Z,7.1634
2023-04-16T11:09:05.021Z,7.2129
2023-04-16T11:10:05.868Z,7.1529
2023-04-16T11:11:06.888Z,7.0946
2023-04-16T11:12:07.852Z,7.0229
2023-04-16T11:13:08.542Z,6.9963
2023-04-16T11:14:16.405Z,7.1049
2023-04-16T11:15:16.686Z,7.1034
2023-04-16T11:16:17.241Z,7.0683
2023-04-16T11:17:22.134Z,7.0428
2023-04-16T11:18:23.027Z,7.0688
2023-04-16T11:19:24.155Z,7.0702
2023-04-16T11:20:25.080Z,7.0811
2023-04-16T11:21:25.362Z,7.0875
2023-04-16T11:22:25.928Z,7.0693
2023-04-16T11:26:32.397Z,7.0768
2023-04-16T11:27:33.541Z,7.1130
2023-04-16T11:28:35.096Z,7.1379
2023-04-16T11:29:35.847Z,7.1654
2023-04-16T11:30:36.555Z,7.1883
2023-04-16T11:31:37.677Z,7.1296
2023-04-16T11:32:38.550Z,7.0197
2023-04-16T11:33:39.409Z,7.0197
2023-04-16T11:34:39.978Z,7.0172
2023-04-16T11:35:40.731Z,6.9998
2023-04-16T11:36:41.094Z,7.0013
2023-04-16T11:37:45.822Z,7.0282
2023-04-16T11:40:46.124Z,6.8728
2023-04-16T11:41:47.276Z,6.9045
2023-04-16T11:42:52.956Z,6.8853
2023-04-16T11:43:53.024Z,6.9103
2023-04-16T11:44:53.663Z,6.9260
2023-04-16T11:45:54.508Z,6.9146
2023-04-16T11:46:58.886Z,6.9086
2023-04-16T11:47:59.904Z,6.8738
2023-04-16T11:49:00.736Z,6.8602
2023-04-16T11:50:05.704Z,6.8572
2023-04-16T11:51:06.617Z,6.8666
2023-04-16T11:52:07.256Z,6.9193
2023-04-16T11:53:07.763Z,6.9660
2023-04-16T11:54:11.138Z,6.9946
2023-04-16T11:55:08.804Z,7.0133
2023-04-16T11:56:09.379Z,7.0407
2023-04-16T11:57:09.936Z,7.0617
2023-04-16T11:58:10.559Z,7.0808
2023-04-16T11:59:11.514Z,7.0601
2023-04-16T12:00:12.616Z,7.0560
2023-04-16T12:01:12.775Z,7.0944
2023-04-16T12:02:13.523Z,7.1254
2023-04-16T12:03:14.879Z,7.1630
2023-04-16T12:04:20.213Z,7.1680
2023-04-16T12:05:20.495Z,7.1965
2023-04-16T12:06:22.228Z,7.2698
2023-04-16T12:07:21.374Z,7.2907
2023-04-16T12:08:22.124Z,7.2608
2023-04-16T12:09:23.551Z,7.2447
2023-04-16T12:10:25.581Z,7.2415
2023-04-16T12:11:27.246Z,7.2490
2023-04-16T12:12:27.988Z,7.2246
2023-04-16T12:13:27.918Z,7.3176
2023-04-16T12:14:28.080Z,7.3877
2023-04-16T12:15:29.894Z,7.3659
2023-04-16T12:16:31.162Z,7.3543
2023-04-16T12:17:31.435Z,7.4180
2023-04-16T12:18:31.544Z,7.4303
2023-04-16T12:19:32.049Z,7.4873
2023-04-16T12:20:33.612Z,7.5543
2023-04-16T12:21:35.098Z,7.5655
2023-04-16T12:22:36.857Z,7.5164
2023-04-16T12:23:35.843Z,7.5154
2023-04-16T12:27:42.517Z,7.4248
2023-04-16T12:28:44.193Z,7.4115
2023-04-16T12:29:44.952Z,7.3562
2023-04-16T12:32:46.296Z,7.2907
2023-04-16T12:33:47.168Z,7.2923
2023-04-16T12:34:49.863Z,7.2961
2023-04-16T12:35:49.986Z,7.2246
2023-04-16T12:36:51.348Z,7.2714
2023-04-16T12:38:52.620Z,7.3116
2023-04-16T12:39:53.259Z,7.2798
2023-04-16T12:40:54.022Z,7.3633
2023-04-16T12:45:00.487Z,7.6490
2023-04-16T12:50:03.478Z,7.7138
2023-04-16T12:51:04.324Z,7.6640
2023-04-16T12:52:04.459Z,7.6198
2023-04-16T12:53:06.162Z,7.6470
2023-04-16T12:54:07.114Z,7.6444
2023-04-16T12:55:06.476Z,7.6588
2023-04-16T12:56:07.234Z,7.6801
2023-04-16T12:57:08.545Z,7.7140
2023-04-16T12:58:11.886Z,7.7103
2023-04-16T12:59:10.531Z,7.6623
2023-04-16T13:00:10.416Z,7.6492
2023-04-16T13:01:11.232Z,7.6021
2023-04-16T13:02:11.836Z,7.6718
2023-04-16T13:03:14.240Z,7.7387
2023-04-16T13:04:14.717Z,7.7750
2023-04-16T13:05:14.764Z,7.7539
2023-04-16T13:08:17.540Z,7.6931
2023-04-16T13:09:18.920Z,7.7105
2023-04-16T13:10:19.550Z,7.7563
2023-04-16T13:11:20.278Z,7.6887
2023-04-16T13:14:22.271Z,7.7098
2023-04-16T13:15:23.144Z,7.7652
2023-04-16T13:16:23.503Z,7.7822
2023-04-16T13:17:25.033Z,7.7157
2023-04-16T13:18:25.153Z,7.7312
2023-04-16T13:19:26.204Z,7.7282
2023-04-16T13:20:27.386Z,7.7659
2023-04-16T13:21:29.067Z,7.7152
2023-04-16T13:22:29.872Z,7.6251
2023-04-16T13:24:30.570Z,7.5114
2023-04-16T13:25:32.090Z,7.4650
2023-04-16T13:26:32.356Z,7.3874
2023-04-16T13:27:34.060Z,7.4097
2023-04-16T13:28:35.984Z,7.4360
2023-04-16T13:29:35.993Z,7.4466
2023-04-16T13:30:36.521Z,7.4409
2023-04-16T13:31:37.777Z,7.4237
2023-04-16T13:32:37.845Z,7.3999
2023-04-16T13:34:38.610Z,7.4004
2023-04-16T13:42:48.459Z,7.4372
2023-04-16T13:43:48.677Z,7.4795
2023-04-16T13:49:55.348Z,7.6511
2023-04-16T13:50:55.947Z,7.5862
2023-04-16T13:51:57.375Z,7.6552
2023-04-16T13:53:57.545Z,7.7236
2023-04-16T13:55:01.341Z,7.7320
2023-04-16T13:56:02.562Z,7.8328
2023-04-16T13:57:04.262Z,7.8975
2023-04-16T13:58:05.002Z,7.8614
2023-04-16T13:59:07.082Z,7.8702
2023-04-16T14:00:08.023Z,7.8954
2023-04-16T14:01:09.019Z,7.8148
2023-04-16T14:03:10.024Z,7.8491
2023-04-16T14:06:11.554Z,7.7900
2023-04-16T14:07:12.576Z,7.7690
2023-04-16T14:08:13.711Z,7.7192
2023-04-16T14:09:15.249Z,7.6798
2023-04-16T14:10:15.547Z,7.6064
2023-04-16T14:11:16.494Z,7.5782
2023-04-16T14:12:16.966Z,7.5810
2023-04-16T14:13:18.721Z,7.5701
2023-04-16T14:14:18.938Z,7.5032
2023-04-16T14:15:19.616Z,7.4569
2023-04-16T14:16:20.698Z,7.4879
2023-04-16T14:17:21.862Z,7.5131
2023-04-16T14:18:23.583Z,7.5006
2023-04-16T14:19:24.073Z,7.5407
2023-04-16T14:20:25.474Z,7.5393
2023-04-16T14:21:26.501Z,7.5196
2023-04-16T14:22:27.305Z,7.5163
2023-04-16T14:23:28.122Z,7.5105
2023-04-16T14:24:29.447Z,7.4791
2023-04-16T14:25:29.812Z,7.4958
2023-04-16T14:26:30.790Z,7.5131
2023-04-16T14:27:31.789Z,7.4987
2023-04-16T14:28:32.940Z,7.5063
2023-04-16T14:29:33.830Z,7.4709
2023-04-16T14:30:34.707Z,7.4717
2023-04-16T14:31:35.803Z,7.5166
2023-04-16T14:32:37.292Z,7.5260
2023-04-16T14:33:38.038Z,7.5226
2023-04-16T14:34:38.900Z,7.5561
2023-04-16T14:35:40.175Z,7.5702
2023-04-16T14:36:40.932Z,7.5474
2023-04-16T14:37:41.347Z,7.4995
2023-04-16T14:38:42.152Z,7.5208
2023-04-16T14:39:43.075Z,7.5116
2023-04-16T14:40:43.733Z,7.4792
2023-04-16T14:41:45.106Z,7.4369
2023-04-16T14:42:45.387Z,7.4141